Nearby METAR Reports

 

KOXC - Oxford/Waterbury, Connecticut, USA
Distance from station: SE 8mi, 12km
Updated: Thu, 13-Aug-2020 3:51pm EDT
Partly cloudy
Partly cloudy
 Wind from SSE
Wind: SSE 3 mph , 6 km/h
Temperature: 79°F , 26°C
Dew Point: 66°F , 19°C
Humidity: 65%
Barometer: 30.11 inHg , 1019.6 hPa
Clouds: Partly cloudy
Visibility: 10 miles , 16 km
Cloud details: Partly cloudy 6500 ft
Partly cloudy 8500 ft
2020/08/13 19:51 KOXC 131951Z 15003KT 10SM SCT065 SCT085 26/19 A3011 RMK AO2 SLP203 T02610194 PNO $
KDXR - Danbury, Connecticut, USA
Distance from station: SW 19mi, 30km
Updated: Thu, 13-Aug-2020 3:53pm EDT
Mostly cloudy
Mostly cloudy
 Wind from SE
Wind: SE 6 mph , 9 km/h
Temperature: 81°F , 27°C
Heat Index: 83°F , 28°C
Dew Point: 66°F , 19°C
Humidity: 62%
Barometer: 30.10 inHg , 1019.3 hPa
Clouds: Mostly cloudy
Visibility: 10 miles , 16 km
Cloud details: Mostly cloudy 6000 ft
2020/08/13 19:53 KDXR 131953Z 14005KT 10SM BKN060 27/19 A3010 RMK AO2 SLP187 T02720194
 
KMMK - Meriden, Connecticut, USA
Distance from station: E 20mi, 33km
Updated: Thu, 13-Aug-2020 3:53pm EDT

 Wind from calm
Wind: Calm
Temperature: 82°F , 28°C
Heat Index: 84°F , 29°C
Dew Point: 66°F , 19°C
Humidity: 58%
Barometer: 30.07 inHg , 1018.3 hPa
Visibility: 10 miles , 16 km
2020/08/13 19:53 KMMK 131953Z AUTO 00000KT 10SM 28/19 A3007 RMK AO2 SLP182 T02780189 $
KBDR - Bridgeport, Connecticut, USA
Distance from station: S 27mi, 44km
Updated: Thu, 13-Aug-2020 3:52pm EDT
Few Clouds
Few Clouds
 Wind from ESE
Wind: ESE 6 mph , 9 km/h
Temperature: 77°F , 25°C
Dew Point: 72°F , 22°C
Humidity: 83%
Barometer: 30.08 inHg , 1018.6 hPa
Clouds: Few Clouds
Visibility: 10 miles , 16 km
Cloud details: Few Clouds 5500 ft
Few Clouds 9000 ft
2020/08/13 19:52 KBDR 131952Z 11005KT 10SM FEW055 FEW090 25/22 A3008 RMK AO2 SLP186 T02500222
 
KHVN - New Haven/Tweed, Connecticut, USA
Distance from station: SE 27mi, 44km
Updated: Thu, 13-Aug-2020 3:53pm EDT
Overcast
Overcast
 Wind from SE
Wind: SE 6 mph , 9 km/h
Temperature: 81°F , 27°C
Heat Index: 84°F , 29°C
Dew Point: 68°F , 20°C
Humidity: 66%
Barometer: 30.08 inHg , 1018.6 hPa
Clouds: Overcast
Visibility: 10 miles , 16 km
Cloud details: Overcast 5500 ft
2020/08/13 19:53 KHVN 131953Z 14005KT 10SM OVC055 27/20 A3008 RMK AO2 SLP187 T02720200
KHFD - Hartford/Brainar, Connecticut, USA
Distance from station: ENE 32mi, 52km
Updated: Thu, 13-Aug-2020 3:53pm EDT
Few Clouds
Few Clouds
 Wind from NNE
Wind: NNE 5 mph , 7 km/h
Temperature: 88°F , 31°C
Dew Point: 59°F , 15°C
Humidity: 38%
Barometer: 30.06 inHg , 1017.9 hPa
Clouds: Few Clouds
Visibility: 10 miles , 16 km
Cloud details: Few Clouds 7000 ft
2020/08/13 19:53 KHFD 131953Z 02004KT 10SM FEW070 31/15 A3006 RMK AO2 SLP179 T03060150
 
KPOU - Poughkeepsie, New York, USA
Distance from station: W 35mi, 56km
Updated: Thu, 13-Aug-2020 3:53pm EDT
Clear
Clear
 Wind from N
Wind: N 5 mph , 7 km/h
Temperature: 82°F , 28°C
Heat Index: 84°F , 29°C
Dew Point: 66°F , 19°C
Humidity: 58%
Barometer: 30.06 inHg , 1017.9 hPa
Clouds: Clear
Visibility: 10 miles , 16 km
2020/08/13 19:53 KPOU 131953Z 01004KT 10SM CLR 28/19 A3006 RMK AO2 SLP176 T02830189
KBDL - Windsor Locks, Connecticut, USA
Distance from station: NE 38mi, 62km
Updated: Thu, 13-Aug-2020 3:51pm EDT
Mostly cloudy
Mostly cloudy
 Wind from N
Wind: N 6 mph , 9 km/h
Temperature: 86°F , 30°C
Dew Point: 55°F , 13°C
Humidity: 35%
Barometer: 30.07 inHg , 1018.3 hPa
Clouds: Mostly cloudy
Visibility: 10 miles , 16 km
Cloud details: Few Clouds 3500 ft
Few Clouds 7500 ft
Mostly cloudy 21000 ft
Mostly cloudy 24000 ft
2020/08/13 19:51 KBDL 131951Z 36005KT 10SM FEW035 FEW075 BKN210 BKN240 30/13 A3007 RMK AO2 SLP182 VIRGA ALQDS T03000133
 
KSNC - Chester, Connecticut, USA
Distance from station: ESE 39mi, 63km
Updated: Thu, 13-Aug-2020 4:35pm EDT
Clear
Clear
 Wind from S
Wind: S 3 mph , 6 km/h
Temperature: 79°F , 26°C
Dew Point: 72°F , 22°C
Humidity: 79%
Barometer: 30.09 inHg , 1019 hPa
Clouds: Clear
Visibility: 9 miles , 14 km
2020/08/13 20:35 KSNC 132035Z AUTO 18003KT 9SM CLR 26/22 A3009 RMK AO2
KHPN - White Plains, New York, USA
Distance from station: SW 42mi, 67km
Updated: Thu, 13-Aug-2020 3:56pm EDT
Partly cloudy
Partly cloudy
 Wind from E
Wind: E 3 mph , 6 km/h
Temperature: 75°F , 24°C
Dew Point: 70°F , 21°C
Humidity: 83%
Barometer: 30.09 inHg , 1019 hPa
Clouds: Partly cloudy
Visibility: 10 miles , 16 km
Cloud details: Few Clouds 6000 ft
Partly cloudy 8500 ft
Partly cloudy 12000 ft
2020/08/13 19:56 KHPN 131956Z 08003KT 10SM FEW060 SCT085 SCT120 24/21 A3009 RMK AO2 SLP183 T02440211
 
KSWF - Newburgh/Stewart, New York, USA
Distance from station: W 45mi, 72km
Updated: Thu, 13-Aug-2020 4:45pm EDT
Mostly cloudy
Mostly cloudy
 Wind from E
Wind: E 12 mph , 19 km/h
Temperature: 81°F , 27°C
Heat Index: 84°F , 29°C
Dew Point: 68°F , 20°C
Humidity: 66%
Barometer: 30.10 inHg , 1019.3 hPa
Clouds: Mostly cloudy
Visibility: 10 miles , 16 km
Cloud details: Mostly cloudy 7000 ft
2020/08/13 20:45 KSWF 132045Z 08010KT 10SM BKN070 27/20 A3010
KBAF - Westfield, Massachusetts, USA
Distance from station: NNE 50mi, 80km
Updated: Thu, 13-Aug-2020 3:53pm EDT
Clear
Clear
 Wind from ENE
Wind: ENE 3 mph , 6 km/h
Temperature: 84°F , 29°C
Heat Index: 83°F , 28°C
Dew Point: 57°F , 14°C
Humidity: 40%
Barometer: 30.08 inHg , 1018.6 hPa
Clouds: Clear
Visibility: 10 miles , 16 km
2020/08/13 19:53 KBAF 131953Z 06003KT 10SM CLR 29/14 A3008 RMK AO2 SLP184 T02940139